Athinai, Greece

12:51 AM EEST on September 03, 2014 (GMT +0300)
IATTICAI2 | Change Station
CLOSE
Current Station
Personal Weather Station
Location: Ilion, ILION
Elevation: 410 ft
Nearby Weather Stations

Elev 410 ft 38.04 °N, 23.70 °E | Updated 15 seconds ago

Partly Cloudy
Partly Cloudy
77.7 °F
Feels Like 79 °F
N
1.2
Wind Variable Wind from SW
Gusts 1.2 mph

Today
High -- | Low -- °F
--% Chance of Precip.
Yesterday
High -- | Low -- °F
Precip. -- in
6:56 AM 7:52 PM
First Quarter, 55% visible
Pressure 29.71 in
Visibility 6.2 miles
Clouds Few 2000 ft
Heat Index 79 °F
Dew Point 61 °F
Humidity 57%
Rainfall 0.00 in
Snow Depth Not available.
UV 0 out of 12
Pollen Not available.
Air Quality Not available.
Flu Activity Not available.
METAR LGAV 022120Z 19008KT 9999 FEW020 25/17 Q1006 NOSIG

More Conditions Fewer Conditions

Pressure 29.71 in
Visibility 6.2 miles
Clouds Few 2000 ft
Heat Index 79 °F
Dew Point 61 °F
Humidity 57%
Rainfall 0.00 in
Snow Depth Not available.
UV 0 out of 12
Pollen Not available.
Air Quality Not available.
Flu Activity Not available.
METAR LGAV 022120Z 19008KT 9999 FEW020 25/17 Q1006 NOSIG

More Conditions Fewer Conditions

10-Day Weather Forecast

Almanac

Astronomy

Sep. 03, 2014 Rise Set
Actual Time 6:56 AM EEST 7:52 PM EEST
Civil Twilight 6:29 AM EEST 8:19 PM EEST
Nautical Twilight 5:57 AM EEST 8:50 PM EEST
Astronomical Twilight 5:24 AM EEST 9:23 PM EEST
Moon 3:13 PM EEST (9/3) 12:36 AM EEST (9/3)
Length of Visible Light 13h 49m
Length of Day
12h 55m
Tomorrow will be 2m 22s shorter.
First Quarter, 55% of the Moon is Illuminated
Sep 2
First Quarter
Sep 8
Full
Sep 15
Last Quarter
Sep 24
New
Oct 1
First Quarter

Yesterday's Extremes

Country Highs Country Lows

Community

WunderPhotos

Upload Photos

1,749,782 photos uploaded!

Nearby

Snow Depth

Not available.

Earthquake Activity

City Distance Mag. Time & Date
No recent earthquake activity has been reported nearby.
Minimum magnitude displayed is 2.5.

Coastal Water Temperatures

Place Temperature
No Stations Reporting

Nearby Weather Stations